TimeEDT,TemperatureF,Dew PointF,Humidity,Sea Level PressureIn,VisibilityMPH,Wind Direction,Wind SpeedMPH,Gust SpeedMPH,PrecipitationIn,Events,Conditions,WindDirDegrees,DateUTC
12:53 AM,39.9,30.0,68,30.39,10.0,Calm,Calm,-,N/A,,Clear,0,2012-10-13 04:53:00
2:53 AM,39.9,30.0,68,30.35,10.0,SE,6.9,-,N/A,,Clear,130,2012-10-13 06:53:00
3:53 AM,39.9,30.0,68,30.33,10.0,ESE,4.6,-,N/A,,Clear,120,2012-10-13 07:53:00
4:53 AM,37.0,30.0,76,30.33,10.0,ESE,4.6,-,N/A,,Clear,120,2012-10-13 08:53:00
5:53 AM,37.9,30.9,76,30.32,10.0,Calm,Calm,-,N/A,,Clear,0,2012-10-13 09:53:00
6:53 AM,39.0,30.9,73,30.28,10.0,SE,4.6,-,N/A,,Clear,130,2012-10-13 10:53:00
7:53 AM,39.9,30.9,70,30.27,10.0,SE,4.6,-,N/A,,Clear,140,2012-10-13 11:53:00
8:53 AM,44.1,32.0,63,30.27,10.0,South,3.5,-,N/A,,Mostly Cloudy,180,2012-10-13 12:53:00
9:53 AM,46.9,33.1,59,30.25,10.0,SSE,8.1,-,N/A,,Scattered Clouds,160,2012-10-13 13:53:00
10:53 AM,53.1,37.0,55,30.22,10.0,SSE,6.9,-,N/A,,Overcast,160,2012-10-13 14:53:00
11:53 AM,55.9,39.9,55,30.19,10.0,Calm,Calm,-,N/A,,Overcast,0,2012-10-13 15:53:00
12:53 PM,57.9,39.9,51,30.17,10.0,SSE,3.5,-,N/A,,Overcast,160,2012-10-13 16:53:00
2:53 PM,61.0,44.1,54,30.06,10.0,SE,3.5,-,N/A,,Scattered Clouds,140,2012-10-13 18:53:00
3:53 PM,63.0,50.0,63,30.03,10.0,South,9.2,-,0.00,Rain,Light Rain,170,2012-10-13 19:53:00
4:43 PM,60.8,53.6,77,30.02,3.0,SSW,6.9,-,0.05,Rain,Light Rain,210,2012-10-13 20:43:00
4:53 PM,59.0,55.0,87,30.02,4.0,South,6.9,-,0.07,Rain,Rain,190,2012-10-13 20:53:00
5:53 PM,60.1,55.9,86,29.99,10.0,SSW,10.4,18.4,0.02,Rain,Light Rain,200,2012-10-13 21:53:00
6:53 PM,61.0,57.9,90,29.96,10.0,South,11.5,19.6,0.02,Rain,Light Rain,190,2012-10-13 22:53:00
7:27 PM,60.8,57.2,88,29.95,10.0,SSW,11.5,-,0.00,Rain,Light Rain,200,2012-10-13 23:27:00
8:53 PM,62.1,59.0,90,29.95,10.0,SSW,12.7,-,N/A,,Scattered Clouds,200,2012-10-14 00:53:00
10:53 PM,64.9,60.1,84,29.94,9.0,SSW,11.5,21.9,N/A,,Mostly Cloudy,200,2012-10-14 02:53:00